Terminal Aerodrome Forecast
Issued by NWS

Home | Current Version | Previous Version | Text Only | Print | Product List | Glossary On
Versions: 1 2 3 4 5 6 7 8 9 10 11 12
000
FTUS45 KABQ 242300
TAFAEG
TAF
KAEG 242320Z 2500/2524 31022G30KT P6SM SCT090
     FM250100 34015G25KT P6SM FEW090
     FM250500 35011KT P6SM SKC
     FM251800 30012G18KT P6SM SKC=

USA.gov is the U.S. government's official web portal to all federal, state and local government web resources and services.